Time;durP1;ratioP1;P1;durP2;ratioP2;P2;SDS_P1;SDS_P2;PMS_P1;PMS_P2;Temp;Humidity;BMP_temperature;BMP_pressure;BME280_temperature;BME280_humidity;BME280_pressure;Samples;Min_cycle;Max_cycle;Signal;HPM_P1;HPM_P2
2021/10/15 00:00:19;;;;;;;32.08;20.55;;;;;;;3.69;100.00;99801.06;1596239;87;20926;-67
2021/10/15 00:02:48;;;;;;;38.17;20.97;;;;;;;3.67;100.00;99800.13;1559153;89;21053;-66
2021/10/15 00:05:16;;;;;;;35.28;21.00;;;;;;;3.66;100.00;99799.67;1572363;89;21598;-67
2021/10/15 00:07:47;;;;;;;32.05;20.62;;;;;;;3.64;100.00;99793.94;1574381;89;21616;-67
2021/10/15 00:10:17;;;;;;;38.28;23.55;;;;;;;3.63;100.00;99799.57;1580526;89;20960;-67
2021/10/15 00:12:46;;;;;;;37.40;22.62;;;;;;;3.60;100.00;99792.95;1571960;89;21080;-66
2021/10/15 00:15:14;;;;;;;34.45;21.77;;;;;;;3.56;100.00;99795.00;1582421;89;21480;-66
2021/10/15 00:17:42;;;;;;;34.88;20.52;;;;;;;3.54;100.00;99797.09;1586863;89;20913;-66
2021/10/15 00:20:14;;;;;;;30.40;19.98;;;;;;;3.51;100.00;99796.57;1566601;89;21015;-67
2021/10/15 00:22:43;;;;;;;26.35;18.35;;;;;;;3.51;100.00;99798.30;1563585;90;21123;-65
2021/10/15 00:25:11;;;;;;;27.07;17.85;;;;;;;3.51;100.00;99787.86;1594086;88;20901;-65
2021/10/15 00:27:39;;;;;;;27.62;18.40;;;;;;;3.51;100.00;99787.86;1594075;89;21444;-66
2021/10/15 00:30:07;;;;;;;26.97;18.15;;;;;;;3.51;100.00;99791.77;1593038;88;20916;-68
2021/10/15 00:32:36;;;;;;;33.18;17.10;;;;;;;3.51;100.00;99791.36;1553500;89;21518;-66
2021/10/15 00:35:05;;;;;;;28.62;17.52;;;;;;;3.50;100.00;99797.41;1565113;90;21109;-65
2021/10/15 00:37:33;;;;;;;30.90;18.15;;;;;;;3.48;100.00;99799.08;1567068;89;21038;-65
2021/10/15 00:40:02;;;;;;;27.02;18.42;;;;;;;3.47;100.00;99799.92;1566093;89;21486;-66
2021/10/15 00:42:32;;;;;;;26.45;17.27;;;;;;;3.43;100.00;99798.94;1584393;89;21060;-66
2021/10/15 00:44:59;;;;;;;27.75;18.10;;;;;;;3.40;100.00;99792.31;1568361;89;21048;-66
2021/10/15 00:47:27;;;;;;;26.05;17.32;;;;;;;3.39;100.00;99793.57;1576042;89;21100;-67
2021/10/15 00:49:56;;;;;;;26.75;17.82;;;;;;;3.36;100.00;99789.14;1591304;89;21480;-67
2021/10/15 00:52:23;;;;;;;28.32;17.32;;;;;;;3.33;100.00;99786.44;1573798;89;20929;-66
2021/10/15 00:54:52;;;;;;;29.48;18.10;;;;;;;3.32;100.00;99782.47;1566769;89;20975;-66
2021/10/15 00:57:20;;;;;;;28.12;17.40;;;;;;;3.28;100.00;99785.78;1590433;89;21575;-65
2021/10/15 00:59:48;;;;;;;26.12;18.02;;;;;;;3.23;100.00;99785.63;1580748;88;21104;-65
2021/10/15 01:02:17;;;;;;;27.65;18.48;;;;;;;3.19;100.00;99782.45;1589440;89;20972;-64
2021/10/15 01:04:44;;;;;;;26.25;17.92;;;;;;;3.16;100.00;99780.63;1592543;88;20981;-65
2021/10/15 01:07:12;;;;;;;31.40;19.27;;;;;;;3.13;100.00;99782.25;1573183;89;20980;-66
2021/10/15 01:09:41;;;;;;;29.75;19.92;;;;;;;3.12;100.00;99789.19;1581293;88;20993;-65
2021/10/15 01:12:10;;;;;;;32.20;19.77;;;;;;;3.10;100.00;99786.06;1592421;89;22823;-65
2021/10/15 01:14:40;;;;;;;30.57;19.82;;;;;;;3.04;100.00;99786.74;1591884;88;21421;-64
2021/10/15 01:17:09;;;;;;;31.20;20.15;;;;;;;3.00;100.00;99778.34;1596923;88;21462;-65
2021/10/15 01:19:38;;;;;;;34.83;20.35;;;;;;;2.98;100.00;99777.41;1592430;89;21509;-64
2021/10/15 01:22:07;;;;;;;37.80;19.82;;;;;;;2.97;100.00;99775.64;1592874;89;20966;-65
2021/10/15 01:24:36;;;;;;;35.30;20.32;;;;;;;2.96;100.00;99779.08;1592855;89;21102;-65
2021/10/15 01:27:07;;;;;;;33.42;19.92;;;;;;;2.96;100.00;99775.59;1592664;88;21504;-66
2021/10/15 01:29:36;;;;;;;28.73;19.40;;;;;;;2.95;100.00;99766.00;1592445;89;20964;-65
2021/10/15 01:32:09;;;;;;;35.50;20.08;;;;;;;2.93;100.00;99761.16;1592613;88;21001;-66
2021/10/15 01:34:41;;;;;;;32.75;19.85;;;;;;;2.92;100.00;99762.88;1593323;89;20991;-66
2021/10/15 01:37:08;;;;;;;31.95;19.75;;;;;;;2.91;100.00;99761.10;1592567;89;21003;-65
2021/10/15 01:39:35;;;;;;;31.52;19.25;;;;;;;2.91;100.00;99765.02;1592347;88;20981;-64
2021/10/15 01:42:04;;;;;;;31.02;20.12;;;;;;;2.91;100.00;99766.31;1592543;88;20965;-65
2021/10/15 01:44:32;;;;;;;32.90;19.90;;;;;;;2.89;100.00;99760.58;1592269;88;21020;-65
2021/10/15 01:46:59;;;;;;;30.75;19.98;;;;;;;2.86;100.00;99765.27;1589400;88;20892;-65
2021/10/15 01:49:27;;;;;;;32.53;20.72;;;;;;;2.77;100.00;99764.51;1602240;88;22014;-65
2021/10/15 01:51:55;;;;;;;34.35;19.32;;;;;;;2.67;100.00;99769.34;1592995;88;21455;-65
2021/10/15 01:54:22;;;;;;;33.90;20.20;;;;;;;2.51;100.00;99766.63;1592557;90;20961;-65
2021/10/15 01:56:52;;;;;;;30.08;19.48;;;;;;;2.38;100.00;99764.00;1592435;88;21433;-65
2021/10/15 01:59:19;;;;;;;31.50;19.07;;;;;;;2.31;100.00;99767.59;1592755;88;21037;-65
2021/10/15 02:01:48;;;;;;;33.58;18.40;;;;;;;2.26;100.00;99772.63;1592773;89;21112;-65
2021/10/15 02:04:15;;;;;;;28.87;19.10;;;;;;;2.26;100.00;99772.63;1594117;90;21464;-65
2021/10/15 02:06:43;;;;;;;30.50;18.65;;;;;;;2.23;100.00;99775.12;1594327;89;21488;-65
2021/10/15 02:09:11;;;;;;;32.98;20.82;;;;;;;2.17;100.00;99767.98;1594197;88;21036;-65
2021/10/15 02:11:41;;;;;;;32.48;19.87;;;;;;;2.14;100.00;99767.86;1594248;89;20905;-65
2021/10/15 02:14:11;;;;;;;32.88;19.15;;;;;;;2.13;100.00;99765.20;1594052;89;21143;-66
2021/10/15 02:16:39;;;;;;;32.03;18.95;;;;;;;2.13;100.00;99765.20;1594077;89;21384;-65
2021/10/15 02:19:08;;;;;;;33.90;19.32;;;;;;;2.12;100.00;99770.82;1594145;89;20984;-66
2021/10/15 02:21:36;;;;;;;29.90;18.98;;;;;;;2.10;100.00;99778.10;1588333;89;21004;-64
2021/10/15 02:24:05;;;;;;;31.07;19.65;;;;;;;2.05;100.00;99772.72;1594202;89;21516;-64
2021/10/15 02:26:33;;;;;;;30.85;19.70;;;;;;;2.00;100.00;99770.37;1594157;90;21117;-64
2021/10/15 02:29:02;;;;;;;34.50;19.85;;;;;;;1.96;100.00;99773.69;1594136;90;21527;-64
2021/10/15 02:31:30;;;;;;;34.30;18.98;;;;;;;1.96;100.00;99774.98;1583688;89;21113;-65
2021/10/15 02:33:58;;;;;;;32.78;19.45;;;;;;;1.97;100.00;99779.77;1589543;89;20998;-65
2021/10/15 02:36:25;;;;;;;34.08;20.35;;;;;;;1.98;100.00;99784.14;1595975;89;21031;-65
2021/10/15 02:38:54;;;;;;;32.78;20.23;;;;;;;1.98;100.00;99788.05;1594247;89;21121;-65
2021/10/15 02:41:22;;;;;;;36.60;21.65;;;;;;;1.99;100.00;99785.92;1594396;88;20932;-66
2021/10/15 02:43:52;;;;;;;29.95;20.25;;;;;;;2.01;100.00;99788.16;1594103;89;21440;-65
2021/10/15 02:46:20;;;;;;;39.83;20.72;;;;;;;2.02;100.00;99783.44;1594176;89;20932;-66
2021/10/15 02:48:49;;;;;;;31.62;20.15;;;;;;;2.02;100.00;99773.91;1574072;89;21519;-64
2021/10/15 02:51:17;;;;;;;37.38;20.48;;;;;;;2.02;100.00;99777.81;1591942;89;21115;-65
2021/10/15 02:53:46;;;;;;;33.35;20.02;;;;;;;2.02;100.00;99771.72;1594171;89;20940;-66
2021/10/15 02:56:14;;;;;;;35.80;20.43;;;;;;;2.03;100.00;99774.80;1594507;90;21508;-64
2021/10/15 02:58:43;;;;;;;35.38;20.90;;;;;;;2.04;100.00;99783.97;1594282;89;20973;-65
2021/10/15 03:01:11;;;;;;;32.23;20.05;;;;;;;2.03;100.00;99783.91;1594422;90;20889;-64
2021/10/15 03:03:39;;;;;;;34.45;22.25;;;;;;;2.01;100.00;99783.84;1594639;88;21922;-64
2021/10/15 03:06:07;;;;;;;62.15;24.40;;;;;;;2.02;100.00;99778.23;1594367;89;20936;-64
2021/10/15 03:08:35;;;;;;;36.73;22.05;;;;;;;2.01;100.00;99773.44;1594383;88;21523;-64
2021/10/15 03:11:04;;;;;;;55.75;24.77;;;;;;;2.01;100.00;99774.73;1594235;88;21025;-65
2021/10/15 03:13:32;;;;;;;72.37;23.22;;;;;;;2.00;100.00;99774.27;1594067;89;20905;-64
2021/10/15 03:16:02;;;;;;;34.25;19.80;;;;;;;2.01;100.00;99775.16;1594282;88;21429;-65
2021/10/15 03:18:31;;;;;;;33.80;20.65;;;;;;;2.03;100.00;99774.80;1594405;89;21468;-64
2021/10/15 03:20:58;;;;;;;31.55;19.65;;;;;;;2.03;100.00;99770.89;1594050;89;21508;-66
2021/10/15 03:23:26;;;;;;;26.70;18.73;;;;;;;2.01;100.00;99778.64;1594250;88;21528;-64
2021/10/15 03:25:54;;;;;;;29.52;20.20;;;;;;;2.03;100.00;99784.80;1594327;89;20985;-64
2021/10/15 03:28:21;;;;;;;37.90;20.95;;;;;;;2.04;100.00;99778.76;1594347;88;21090;-64
2021/10/15 03:30:49;;;;;;;48.38;23.52;;;;;;;2.07;100.00;99790.58;1594158;89;20936;-64
2021/10/15 03:33:17;;;;;;;33.88;22.05;;;;;;;2.08;100.00;99783.66;1594486;89;21505;-65
2021/10/15 03:35:45;;;;;;;29.87;19.70;;;;;;;2.08;100.00;99783.25;1594025;89;21487;-65
2021/10/15 03:38:13;;;;;;;27.05;18.62;;;;;;;2.06;100.00;99782.72;1594420;89;21490;-65
2021/10/15 03:40:41;;;;;;;31.55;19.48;;;;;;;2.03;100.00;99784.80;1594169;88;21549;-65
2021/10/15 03:43:09;;;;;;;33.20;19.57;;;;;;;2.00;100.00;99783.38;1594468;89;20952;-65
2021/10/15 03:45:37;;;;;;;39.50;19.65;;;;;;;1.98;100.00;99791.95;1594413;88;21582;-65
2021/10/15 03:48:05;;;;;;;28.92;18.87;;;;;;;1.95;100.00;99786.63;1594544;89;20988;-67
2021/10/15 03:50:33;;;;;;;30.17;18.35;;;;;;;1.95;100.00;99786.63;1594295;89;21515;-64
2021/10/15 03:53:01;;;;;;;26.15;18.30;;;;;;;1.93;100.00;99783.09;1594185;89;21101;-65
2021/10/15 03:55:29;;;;;;;28.15;18.60;;;;;;;1.92;100.00;99780.02;1593958;90;21476;-65
2021/10/15 03:57:57;;;;;;;29.55;17.92;;;;;;;1.90;100.00;99781.25;1594434;90;21016;-65
2021/10/15 04:00:25;;;;;;;31.12;18.20;;;;;;;1.90;100.00;99782.56;1594084;89;20897;-68
2021/10/15 04:02:53;;;;;;;33.50;18.92;;;;;;;1.86;100.00;99784.12;1594080;88;20969;-66
2021/10/15 04:05:21;;;;;;;30.08;18.57;;;;;;;1.83;100.00;99782.70;1594221;90;21455;-66
2021/10/15 04:07:49;;;;;;;30.35;18.87;;;;;;;1.81;100.00;99782.17;1594132;89;21460;-64
2021/10/15 04:10:17;;;;;;;30.75;18.65;;;;;;;1.78;100.00;99780.34;1594515;89;21538;-63
2021/10/15 04:12:45;;;;;;;35.33;18.57;;;;;;;1.75;100.00;99781.52;1594342;88;21029;-64
2021/10/15 04:15:13;;;;;;;27.20;17.37;;;;;;;1.72;100.00;99781.41;1594107;89;20988;-66
2021/10/15 04:17:40;;;;;;;32.53;18.85;;;;;;;1.69;100.00;99784.30;1579711;89;21090;-64
2021/10/15 04:20:08;;;;;;;29.35;18.27;;;;;;;1.67;100.00;99783.35;1593948;88;21466;-63
2021/10/15 04:22:36;;;;;;;30.88;18.20;;;;;;;1.62;100.00;99777.97;1594194;90;21494;-63
2021/10/15 04:25:06;;;;;;;28.70;18.32;;;;;;;1.59;100.00;99777.85;1594158;89;21504;-64
2021/10/15 04:27:35;;;;;;;36.83;19.48;;;;;;;1.57;100.00;99780.80;1594167;88;20988;-64
2021/10/15 04:30:04;;;;;;;33.42;19.40;;;;;;;1.54;100.00;99782.88;1594287;88;21107;-64
2021/10/15 04:32:32;;;;;;;32.95;20.37;;;;;;;1.54;100.00;99785.89;1594260;89;21475;-64
2021/10/15 04:35:00;;;;;;;32.30;18.52;;;;;;;1.52;100.00;99787.13;1594129;89;20976;-64
2021/10/15 04:37:30;;;;;;;32.40;19.32;;;;;;;1.51;100.00;99789.66;1594293;88;20972;-64
2021/10/15 04:39:57;;;;;;;34.88;20.05;;;;;;;1.50;100.00;99795.69;1594225;88;20974;-65
2021/10/15 04:42:25;;;;;;;29.10;19.00;;;;;;;1.49;100.00;99801.72;1594566;89;21468;-65
2021/10/15 04:44:52;;;;;;;27.35;17.37;;;;;;;1.45;100.00;99807.62;1594114;90;20897;-65
2021/10/15 04:47:20;;;;;;;34.10;19.60;;;;;;;1.41;100.00;99808.28;1594474;88;21000;-65
2021/10/15 04:49:50;;;;;;;33.70;18.92;;;;;;;1.37;100.00;99799.48;1594152;90;21491;-65
2021/10/15 04:52:18;;;;;;;31.62;18.82;;;;;;;1.36;100.00;99805.50;1594445;90;20890;-65
2021/10/15 04:54:46;;;;;;;32.53;18.37;;;;;;;1.37;100.00;99811.17;1594217;89;21113;-64
2021/10/15 04:57:14;;;;;;;29.57;17.77;;;;;;;1.35;100.00;99814.12;1594354;90;21578;-65
2021/10/15 04:59:42;;;;;;;37.98;19.52;;;;;;;1.31;100.00;99816.13;1594302;89;20945;-65
2021/10/15 05:02:10;;;;;;;30.43;18.62;;;;;;;1.30;100.00;99813.05;1594464;88;20953;-67
2021/10/15 05:04:40;;;;;;;28.90;17.73;;;;;;;1.29;100.00;99809.09;1602560;87;21455;-65
2021/10/15 05:07:08;;;;;;;31.50;18.07;;;;;;;1.32;100.00;99807.91;1593701;87;21449;-65
2021/10/15 05:09:37;;;;;;;30.37;18.52;;;;;;;1.34;100.00;99799.77;1601732;89;21458;-66
2021/10/15 05:12:07;;;;;;;29.70;18.35;;;;;;;1.37;100.00;99798.59;1585436;89;20888;-65
2021/10/15 05:14:36;;;;;;;30.70;19.55;;;;;;;1.43;100.00;99799.76;1603532;89;20892;-66
2021/10/15 05:17:04;;;;;;;34.13;19.55;;;;;;;1.47;100.00;99796.87;1603207;88;21471;-66
2021/10/15 05:23:46;;;;;;;32.08;19.45;;;;;;;1.61;100.00;99810.00;1603476;89;20963;-65
2021/10/15 05:26:13;;;;;;;31.65;19.73;;;;;;;1.72;100.00;99810.42;1602917;89;20960;-66
2021/10/15 05:28:41;;;;;;;34.27;19.98;;;;;;;1.75;100.00;99811.84;1603380;88;20932;-66
2021/10/15 05:31:08;;;;;;;63.92;20.90;;;;;;;1.76;100.00;99813.62;1603606;89;20980;-67
2021/10/15 05:33:37;;;;;;;35.60;20.48;;;;;;;1.77;100.00;99807.59;1603209;89;20939;-65
2021/10/15 05:36:05;;;;;;;34.18;20.10;;;;;;;1.81;100.00;99818.17;1602512;89;20964;-67
2021/10/15 05:38:33;;;;;;;34.73;20.57;;;;;;;1.85;100.00;99823.97;1598397;87;20889;-68
2021/10/15 05:41:00;;;;;;;30.77;18.95;;;;;;;1.85;100.00;99821.37;1594362;88;20920;-65
2021/10/15 05:43:28;;;;;;;35.03;19.50;;;;;;;1.91;100.00;99814.66;1597635;89;20951;-66
2021/10/15 05:45:55;;;;;;;30.95;20.12;;;;;;;1.98;100.00;99820.58;1602164;89;21912;-67
2021/10/15 05:48:24;;;;;;;31.97;19.35;;;;;;;2.06;100.00;99819.16;1602138;88;21487;-66
2021/10/15 05:50:51;;;;;;;30.97;20.12;;;;;;;2.14;100.00;99824.23;1601509;88;21592;-67
2021/10/15 05:53:20;;;;;;;31.68;20.68;;;;;;;2.27;100.00;99830.38;1601040;89;21503;-67
2021/10/15 05:56:17;;;;;;;30.90;20.35;;;;;;;2.37;100.00;99828.61;1601115;88;21014;-67
2021/10/15 06:01:14;;;;;;;28.83;18.37;;;;;;;2.45;100.00;99825.87;1602313;88;20964;-69
2021/10/15 06:03:45;;;;;;;29.50;18.60;;;;;;;2.50;100.00;99824.33;1594577;88;21407;-68
2021/10/15 06:14:31;;;;;;;26.87;18.87;;;;;;;2.92;100.00;99828.02;1570161;91;21512;-67
2021/10/15 06:17:11;;;;;;;27.10;18.15;;;;;;;3.05;100.00;99827.61;1566068;91;20893;-68
2021/10/15 06:19:54;;;;;;;33.18;18.10;;;;;;;3.16;100.00;99819.73;1560974;91;21004;-66
2021/10/15 06:22:29;;;;;;;44.42;17.90;;;;;;;3.29;100.00;99817.54;1560782;90;21013;-65
2021/10/15 06:24:56;;;;;;;23.92;17.17;;;;;;;3.40;100.00;99824.91;1562664;90;20974;-66
2021/10/15 06:27:24;;;;;;;37.88;17.80;;;;;;;3.56;100.00;99822.39;1565928;90;21016;-66
2021/10/15 06:29:51;;;;;;;36.48;17.77;;;;;;;3.66;100.00;99826.17;1567389;90;20972;-66
2021/10/15 06:32:20;;;;;;;40.15;18.25;;;;;;;3.77;100.00;99823.48;1564781;91;20952;-66
2021/10/15 06:34:48;;;;;;;24.77;16.52;;;;;;;3.89;100.00;99826.93;1577066;88;20957;-65
2021/10/15 06:37:17;;;;;;;32.53;17.42;;;;;;;3.99;100.00;99824.66;1573986;89;21085;-66
2021/10/15 06:39:44;;;;;;;33.70;17.02;;;;;;;4.07;100.00;99823.58;1558274;90;20929;-67
2021/10/15 06:42:12;;;;;;;24.32;16.50;;;;;;;4.19;100.00;99818.72;1568435;90;20917;-66
2021/10/15 06:44:41;;;;;;;25.00;15.88;;;;;;;4.31;100.00;99825.64;1566917;90;20902;-66
2021/10/15 06:47:10;;;;;;;25.00;16.42;;;;;;;4.46;100.00;99816.48;1564652;90;21480;-67
2021/10/15 06:49:37;;;;;;;28.70;16.05;;;;;;;4.61;100.00;99820.41;1566538;90;21480;-65
2021/10/15 06:52:06;;;;;;;21.17;15.48;;;;;;;4.76;100.00;99821.72;1568393;91;20932;-65
2021/10/15 06:54:34;;;;;;;20.43;14.55;;;;;;;4.91;100.00;99821.70;1568379;91;21551;-65
2021/10/15 06:57:02;;;;;;;37.73;15.58;;;;;;;5.06;100.00;99819.92;1568183;91;21445;-66
2021/10/15 06:59:30;;;;;;;25.88;15.45;;;;;;;5.19;100.00;99816.78;1568349;91;20981;-68
2021/10/15 07:01:58;;;;;;;24.27;15.60;;;;;;;5.36;100.00;99818.55;1568284;91;21055;-66
2021/10/15 07:04:27;;;;;;;32.10;15.30;;;;;;;5.50;100.00;99814.97;1580468;87;21613;-65
2021/10/15 07:06:54;;;;;;;21.95;14.80;;;;;;;5.63;100.00;99816.61;1598806;88;21445;-65
2021/10/15 07:09:21;;;;;;;61.37;18.10;;;;;;;5.81;100.00;99813.57;1598477;88;20965;-65
2021/10/15 07:11:50;;;;;;;49.42;16.82;;;;;;;5.99;100.00;99814.45;1598710;89;20941;-63
2021/10/15 07:14:18;;;;;;;61.77;16.23;;;;;;;6.19;100.00;99808.38;1596111;89;21113;-67
2021/10/15 07:16:46;;;;;;;32.38;15.38;;;;;;;6.38;100.00;99809.65;1599887;89;20932;-64
2021/10/15 07:19:14;;;;;;;24.18;15.40;;;;;;;6.56;100.00;99803.05;1597789;88;20973;-67
2021/10/15 07:21:41;;;;;;;22.98;15.00;;;;;;;6.75;100.00;99798.20;1598719;87;20910;-67
2021/10/15 07:24:08;;;;;;;20.65;14.98;;;;;;;6.93;100.00;99790.68;1600852;87;20929;-67
2021/10/15 07:26:37;;;;;;;22.17;15.40;;;;;;;7.11;100.00;99792.78;1595520;89;21188;-66
2021/10/15 07:29:06;;;;;;;70.55;16.27;;;;;;;7.29;100.00;99786.55;1593986;89;20916;-71
2021/10/15 07:31:35;;;;;;;30.97;14.70;;;;;;;7.50;100.00;99782.08;1592806;88;21008;-70
2021/10/15 07:34:05;;;;;;;44.65;16.40;;;;;;;7.69;100.00;99780.22;1592618;88;21463;-70
2021/10/15 07:36:33;;;;;;;22.70;14.90;;;;;;;7.90;100.00;99778.34;1592712;87;20960;-69
2021/10/15 07:39:01;;;;;;;21.57;14.73;;;;;;;8.09;100.00;99771.20;1592413;88;21111;-68
2021/10/15 07:41:28;;;;;;;18.52;14.45;;;;;;;8.29;100.00;99774.53;1592299;89;20964;-68
2021/10/15 07:43:56;;;;;;;41.95;15.20;;;;;;;8.47;100.00;99767.78;1579931;89;20898;-68
2021/10/15 07:46:24;;;;;;;23.75;14.13;;;;;;;8.64;100.00;99761.44;1600538;87;21456;-69
2021/10/15 07:48:51;;;;;;;23.73;14.65;;;;;;;8.84;100.00;99764.28;1600971;87;21002;-70
2021/10/15 07:51:19;;;;;;;20.68;14.55;;;;;;;9.00;100.00;99761.41;1600982;87;21152;-70
2021/10/15 07:53:49;;;;;;;25.30;13.55;;;;;;;9.19;100.00;99762.45;1600096;87;20986;-70
2021/10/15 07:56:17;;;;;;;22.73;14.43;;;;;;;9.35;100.00;99757.34;1600079;87;20902;-69
2021/10/15 07:58:44;;;;;;;26.70;13.40;;;;;;;9.52;100.00;99759.25;1600941;87;20890;-70
2021/10/15 08:01:12;;;;;;;17.30;10.45;;;;;;;9.69;100.00;99752.36;1601158;87;21044;-69
2021/10/15 08:03:40;;;;;;;13.78;10.70;;;;;;;9.86;100.00;99760.38;1597084;87;21125;-70
2021/10/15 08:06:09;;;;;;;17.52;11.03;;;;;;;10.01;100.00;99760.50;1570961;89;21004;-69
2021/10/15 08:08:38;;;;;;;18.32;11.10;;;;;;;10.15;100.00;99761.45;1570831;89;21623;-70
2021/10/15 08:11:07;;;;;;;17.82;9.83;;;;;;;10.29;100.00;99757.59;1570983;90;21546;-70
2021/10/15 08:13:34;;;;;;;29.85;10.75;;;;;;;10.44;100.00;99756.38;1571465;90;21041;-59
2021/10/15 08:16:01;;;;;;;17.23;8.18;;;;;;;10.60;100.00;99746.76;1570828;88;21081;-69
2021/10/15 08:18:28;;;;;;;9.83;7.62;;;;;;;10.73;100.00;99738.00;1569664;90;20976;-69
2021/10/15 08:20:57;;;;;;;8.18;6.50;;;;;;;10.84;100.00;99736.27;1566528;89;20947;-69
2021/10/15 08:23:28;;;;;;;8.85;6.60;;;;;;;10.98;100.00;99735.88;1564408;91;21516;-71
2021/10/15 08:25:57;;;;;;;8.53;6.05;;;;;;;11.15;100.00;99736.34;1565310;90;20912;-69
2021/10/15 08:28:25;;;;;;;7.40;5.90;;;;;;;11.30;100.00;99731.94;1564549;90;21133;-65
2021/10/15 08:30:53;;;;;;;7.65;5.95;;;;;;;11.47;100.00;99742.98;1565545;90;20980;-66
2021/10/15 08:33:22;;;;;;;7.83;6.05;;;;;;;11.61;100.00;99735.92;1566587;90;20940;-67
2021/10/15 08:35:52;;;;;;;64.30;8.30;;;;;;;11.73;98.84;99736.34;1569024;90;20981;-64
2021/10/15 08:38:20;;;;;;;43.78;6.70;;;;;;;11.84;96.12;99728.02;1567136;90;20976;-65
2021/10/15 08:40:49;;;;;;;6.42;5.12;;;;;;;11.95;92.22;99733.72;1562196;90;21500;-66
2021/10/15 08:43:16;;;;;;;8.00;5.62;;;;;;;12.08;88.23;99732.36;1567784;90;21058;-67
2021/10/15 08:45:45;;;;;;;8.73;4.97;;;;;;;12.16;84.87;99730.58;1566026;91;21509;-65
2021/10/15 08:48:19;;;;;;;10.30;5.15;;;;;;;12.27;81.57;99730.97;1572529;90;21468;-67
2021/10/15 08:50:46;;;;;;;9.68;5.17;;;;;;;12.38;78.94;99726.99;1555427;88;20988;-66
2021/10/15 08:53:14;;;;;;;14.40;5.17;;;;;;;12.51;77.38;99726.50;1528740;90;21112;-67
2021/10/15 08:55:45;;;;;;;6.92;4.70;;;;;;;12.63;75.08;99721.58;1565001;90;20939;-67
2021/10/15 08:58:12;;;;;;;17.17;5.42;;;;;;;12.77;73.09;99725.03;1569173;90;20956;-67
2021/10/15 09:00:40;;;;;;;24.77;6.58;;;;;;;12.89;70.27;99716.59;1573321;90;21049;-68
2021/10/15 09:03:21;;;;;;;93.37;9.80;;;;;;;13.02;68.78;99719.16;1564956;89;21011;-67
2021/10/15 09:06:03;;;;;;;7.35;5.00;;;;;;;13.12;67.31;99719.53;1590168;89;21131;-64
2021/10/15 09:08:48;;;;;;;8.05;4.47;;;;;;;13.23;65.68;99714.61;1592605;88;21475;-63
2021/10/15 09:11:30;;;;;;;7.42;5.25;;;;;;;13.36;63.87;99709.25;1594162;89;20873;-64
2021/10/15 09:14:09;;;;;;;39.60;7.15;;;;;;;13.48;61.54;99706.48;1584755;88;20981;-75
2021/10/15 09:17:00;;;;;;;21.27;5.95;;;;;;;13.57;60.29;99717.45;1589252;88;21055;-78
2021/10/15 09:19:31;;;;;;;26.05;5.83;;;;;;;13.66;58.91;99711.61;1584452;90;21780;-70
2021/10/15 09:22:10;;;;;;;52.33;9.03;;;;;;;13.75;57.69;99713.33;1576997;89;20877;-71
2021/10/15 09:24:46;;;;;;;38.35;6.22;;;;;;;13.83;56.67;99715.00;1573925;90;20934;-73
2021/10/15 09:27:25;;;;;;;8.75;5.50;;;;;;;13.94;56.21;99708.70;1590151;88;20913;-73
2021/10/15 09:30:07;;;;;;;22.70;6.30;;;;;;;14.05;55.62;99713.45;1585846;88;21460;-72
2021/10/15 09:32:41;;;;;;;6.75;5.33;;;;;;;14.14;55.12;99706.70;1594353;88;22217;-72
2021/10/15 09:35:10;;;;;;;21.85;5.87;;;;;;;14.22;54.76;99701.34;1593552;88;20973;-64
2021/10/15 09:37:40;;;;;;;8.25;5.50;;;;;;;14.32;54.30;99704.31;1597724;89;21013;-64
2021/10/15 09:40:13;;;;;;;18.70;5.92;;;;;;;14.38;52.83;99705.56;1599092;89;21621;-64
2021/10/15 09:42:44;;;;;;;6.65;5.25;;;;;;;14.45;52.60;99703.29;1574512;89;21782;-63
2021/10/15 09:45:18;;;;;;;83.50;9.48;;;;;;;14.53;52.43;99699.20;1573365;89;21841;-64
2021/10/15 09:47:55;;;;;;;16.30;5.20;;;;;;;14.63;52.14;99693.75;1572882;90;20921;-64
2021/10/15 09:50:28;;;;;;;11.75;3.90;;;;;;;14.77;51.48;99693.59;1575099;88;20987;-65
2021/10/15 09:53:03;;;;;;;13.78;4.42;;;;;;;14.88;50.10;99696.96;1585688;88;20962;-65
2021/10/15 09:55:39;;;;;;;8.43;4.80;;;;;;;14.99;49.20;99693.69;1598980;88;20942;-65
2021/10/15 09:58:20;;;;;;;10.58;4.50;;;;;;;15.10;48.71;99693.52;1598430;88;21103;-67
2021/10/15 10:00:53;;;;;;;5.25;4.17;;;;;;;15.21;48.54;99689.39;1591866;88;20980;-67
2021/10/15 10:03:23;;;;;;;16.65;4.85;;;;;;;15.32;48.33;99687.44;1589870;89;21495;-67
2021/10/15 10:05:51;;;;;;;6.53;4.45;;;;;;;15.49;48.34;99686.69;1592681;88;20972;-68
2021/10/15 10:08:19;;;;;;;46.37;6.40;;;;;;;15.67;48.31;99689.09;1596076;88;20968;-67
2021/10/15 10:10:47;;;;;;;8.05;4.75;;;;;;;15.84;47.19;99692.77;1595106;88;21093;-67
2021/10/15 10:13:16;;;;;;;6.58;4.50;;;;;;;15.94;46.58;99677.05;1595107;88;20997;-67
2021/10/15 10:15:46;;;;;;;5.65;4.62;;;;;;;16.01;45.93;99675.14;1593469;88;21520;-68
2021/10/15 10:18:26;;;;;;;6.17;4.40;;;;;;;16.09;45.54;99661.26;1593103;88;21105;-67
2021/10/15 10:21:03;;;;;;;7.30;4.37;;;;;;;16.19;45.12;99658.83;1593165;88;21476;-67
2021/10/15 10:23:47;;;;;;;6.60;3.90;;;;;;;16.32;44.72;99648.80;1592808;88;21078;-67
2021/10/15 10:26:20;;;;;;;11.65;4.87;;;;;;;16.43;43.73;99634.80;1593047;88;21218;-67
2021/10/15 10:29:04;;;;;;;24.45;7.33;;;;;;;16.43;43.73;99634.80;1592409;90;21126;-67
2021/10/15 10:31:33;;;;;;;9.50;4.92;;;;;;;16.56;43.69;99652.28;1592802;88;20970;-68
2021/10/15 10:34:04;;;;;;;6.28;4.62;;;;;;;16.56;43.69;99652.28;1594175;88;21481;-65
2021/10/15 10:36:35;;;;;;;11.57;5.67;;;;;;;16.62;43.38;99648.61;1598280;88;21055;-67
2021/10/15 10:39:25;;;;;;;9.23;5.15;;;;;;;16.71;42.92;99647.55;1597607;89;21424;-67
2021/10/15 10:42:29;;;;;;;6.17;5.10;;;;;;;16.86;42.44;99646.73;1592308;88;20936;-68
2021/10/15 10:44:57;;;;;;;11.68;4.70;;;;;;;16.86;42.44;99646.73;1590151;88;20961;-68
2021/10/15 10:47:29;;;;;;;10.60;4.80;;;;;;;16.96;42.03;99650.05;1586933;88;20940;-68
2021/10/15 10:50:09;;;;;;;12.18;5.45;;;;;;;17.00;41.76;99646.41;1590995;88;21125;-67
2021/10/15 10:52:52;;;;;;;28.83;5.60;;;;;;;17.11;41.60;99640.84;1591508;88;20968;-68
2021/10/15 10:55:39;;;;;;;;;;;;;;;17.26;41.49;99633.33;1583168;89;20995;-68
2021/10/15 10:58:36;;;;;;;61.73;8.95;;;;;;;17.44;41.37;99629.31;1591061;89;20124;-68
2021/10/15 11:01:25;;;;;;;11.83;5.75;;;;;;;17.54;41.27;99622.84;1591630;90;21516;-67
2021/10/15 11:03:56;;;;;;;7.15;5.00;;;;;;;17.65;41.04;99621.22;1590933;88;21582;-67
2021/10/15 11:06:24;;;;;;;7.37;5.03;;;;;;;17.74;40.80;99623.66;1573981;88;20961;-68
2021/10/15 11:08:53;;;;;;;7.67;5.45;;;;;;;17.84;40.92;99614.48;1603244;87;21403;-68
2021/10/15 11:11:33;;;;;;;6.95;4.10;;;;;;;17.93;40.92;99616.02;1596394;89;21609;-67
2021/10/15 11:13:57;;;;;;;4.75;3.80;;;;;;;18.01;40.18;99618.04;1601647;87;20993;-68
2021/10/15 11:16:30;;;;;;;3.98;3.05;;;;;;;18.08;38.97;99614.73;1603161;88;21432;-68
2021/10/15 11:19:00;;;;;;;7.95;3.70;;;;;;;18.10;38.21;99616.44;1602833;88;21467;-68
2021/10/15 11:21:29;;;;;;;6.15;3.47;;;;;;;18.20;37.89;99610.36;1604012;88;20940;-68
2021/10/15 11:24:15;;;;;;;5.75;4.10;;;;;;;18.27;37.64;99607.92;1603599;88;21036;-68
2021/10/15 11:26:45;;;;;;;8.53;4.45;;;;;;;18.38;37.43;99611.14;1612436;87;20963;-68
2021/10/15 11:29:13;;;;;;;12.47;3.67;;;;;;;18.54;37.50;99606.23;1609602;87;21114;-68
2021/10/15 11:31:55;;;;;;;5.70;3.42;;;;;;;18.62;37.18;99604.69;1603202;89;20956;-68
2021/10/15 11:34:23;;;;;;;5.22;3.40;;;;;;;18.65;36.58;99606.80;1603156;89;21824;-68
2021/10/15 11:37:05;;;;;;;4.92;2.90;;;;;;;18.62;35.84;99604.69;1584731;89;21032;-69
2021/10/15 11:39:34;;;;;;;5.35;3.65;;;;;;;18.52;34.91;99606.28;1603421;88;20936;-69
2021/10/15 11:42:02;;;;;;;6.35;3.52;;;;;;;18.46;34.92;99598.91;1601744;88;21106;-69
2021/10/15 11:44:38;;;;;;;14.65;4.33;;;;;;;18.49;35.27;99594.81;1601323;88;20894;-67
2021/10/15 11:47:11;;;;;;;5.45;3.55;;;;;;;18.58;35.68;99594.98;1604172;88;21018;-67
2021/10/15 11:49:38;;;;;;;;;;;;;;;18.65;35.41;99586.76;1605427;88;20920;-67